createdAt,value
2022-12-09T00:01:23.279Z,49.70
2022-12-09T00:03:51.211Z,52.42
2022-12-09T00:06:30.323Z,54.20
2022-12-09T00:09:00.545Z,49.03
2022-12-09T00:11:28.380Z,51.53
2022-12-09T00:13:58.584Z,52.75
2022-12-09T00:16:28.428Z,52.35
2022-12-09T00:18:59.317Z,53.55
2022-12-09T00:21:34.917Z,56.38
2022-12-09T00:24:09.648Z,53.17
2022-12-09T00:26:37.101Z,50.45
2022-12-09T00:29:05.464Z,52.67
2022-12-09T00:31:38.565Z,50.38
2022-12-09T00:34:08.993Z,47.67
2022-12-09T00:36:37.917Z,49.90
2022-12-09T00:39:08.149Z,52.55
2022-12-09T00:41:35.731Z,49.42
2022-12-09T00:44:04.264Z,55.90
2022-12-09T00:46:31.756Z,51.95
2022-12-09T00:49:03.010Z,54.03
2022-12-09T00:51:30.498Z,60.25
2022-12-09T00:53:58.199Z,50.75
2022-12-09T00:56:29.972Z,50.33
2022-12-09T00:58:58.912Z,55.50
2022-12-09T01:01:26.841Z,55.38
2022-12-09T01:03:58.051Z,58.45
2022-12-09T01:06:34.275Z,57.25
2022-12-09T01:09:05.259Z,52.80
2022-12-09T01:11:32.855Z,57.83
2022-12-09T01:14:02.396Z,51.05
2022-12-09T01:16:32.578Z,56.10
2022-12-09T01:19:05.330Z,54.08
2022-12-09T01:21:33.352Z,50.78
2022-12-09T01:24:01.274Z,56.13
2022-12-09T01:26:30.598Z,57.53
2022-12-09T01:28:58.278Z,54.78
2022-12-09T01:31:25.954Z,55.88
2022-12-09T01:33:55.380Z,53.75
2022-12-09T01:36:25.522Z,51.25
2022-12-09T01:38:56.033Z,51.45
2022-12-09T01:41:23.579Z,51.97
2022-12-09T01:44:20.780Z,51.42
2022-12-09T01:46:53.944Z,59.33
2022-12-09T01:49:28.854Z,53.63
2022-12-09T01:52:19.071Z,54.00
2022-12-09T01:54:52.912Z,47.15
2022-12-09T01:57:22.784Z,49.30
2022-12-09T01:59:53.259Z,52.60
2022-12-09T02:02:22.894Z,58.47
2022-12-09T02:04:53.355Z,51.40
2022-12-09T02:07:23.501Z,55.38
2022-12-09T02:09:54.940Z,50.78
2022-12-09T02:12:50.375Z,61.53
2022-12-09T02:15:58.053Z,54.35
2022-12-09T02:18:31.553Z,54.63
2022-12-09T02:21:18.439Z,53.20
2022-12-09T02:24:00.358Z,56.00
2022-12-09T02:29:22.912Z,60.58
2022-12-09T02:32:27.369Z,59.35
2022-12-09T02:35:23.897Z,56.60
2022-12-09T02:38:24.607Z,57.63
2022-12-09T02:41:11.257Z,59.78
2022-12-09T02:43:51.038Z,56.45
2022-12-09T02:46:27.744Z,59.60
2022-12-09T02:48:58.505Z,60.92
2022-12-09T02:51:30.861Z,67.30
2022-12-09T02:54:05.613Z,54.63
2022-12-09T02:56:35.717Z,56.03
2022-12-09T02:59:09.685Z,57.53
2022-12-09T03:01:47.376Z,58.13
2022-12-09T03:04:21.135Z,56.17
2022-12-09T03:06:53.139Z,60.50
2022-12-09T03:09:33.318Z,58.58
2022-12-09T03:12:07.110Z,57.58
2022-12-09T03:14:56.233Z,59.67
2022-12-09T03:17:35.690Z,54.97
2022-12-09T03:20:14.240Z,64.72
2022-12-09T03:22:43.328Z,69.53
2022-12-09T03:25:19.445Z,57.03
2022-12-09T03:27:49.909Z,60.45
2022-12-09T03:30:18.089Z,55.70
2022-12-09T03:32:47.128Z,56.17
2022-12-09T03:35:25.363Z,62.72
2022-12-09T03:37:57.631Z,62.50
2022-12-09T03:40:31.916Z,57.15
2022-12-09T03:43:16.280Z,55.83
2022-12-09T03:45:43.864Z,55.38
2022-12-09T03:48:11.698Z,59.88
2022-12-09T03:50:56.041Z,55.85
2022-12-09T03:53:40.829Z,59.22
2022-12-09T03:56:16.706Z,55.30
2022-12-09T03:58:49.113Z,65.28
2022-12-09T04:01:18.009Z,60.65
2022-12-09T04:03:55.038Z,67.45
2022-12-09T04:06:25.991Z,60.47
2022-12-09T04:08:56.821Z,55.30
2022-12-09T04:11:28.359Z,59.75
2022-12-09T04:13:55.841Z,57.72
2022-12-09T04:16:23.684Z,59.30
2022-12-09T04:18:51.266Z,57.88
2022-12-09T04:21:19.097Z,58.13
2022-12-09T04:23:48.684Z,58.45
2022-12-09T04:26:20.491Z,62.47
2022-12-09T04:28:48.228Z,51.38
2022-12-09T04:31:18.103Z,55.25
2022-12-09T04:33:48.167Z,55.55
2022-12-09T04:36:18.060Z,51.30
2022-12-09T04:38:48.737Z,56.20
2022-12-09T04:41:16.917Z,51.65
2022-12-09T04:43:44.587Z,53.67
2022-12-09T04:46:14.472Z,55.08
2022-12-09T04:48:44.496Z,54.63
2022-12-09T04:51:13.745Z,51.53
2022-12-09T04:53:43.902Z,54.75
2022-12-09T04:56:16.531Z,56.90
2022-12-09T04:58:45.784Z,49.72
2022-12-09T05:01:21.688Z,51.33
2022-12-09T05:03:57.000Z,66.03
2022-12-09T05:06:30.401Z,56.10
2022-12-09T05:09:00.334Z,54.15
2022-12-09T05:11:30.703Z,57.53
2022-12-09T05:14:00.590Z,57.60
2022-12-09T05:16:28.726Z,65.88
2022-12-09T05:19:03.207Z,59.67
2022-12-09T05:21:33.657Z,57.67
2022-12-09T05:24:06.424Z,55.60
2022-12-09T05:26:36.814Z,55.95
2022-12-09T05:29:04.755Z,58.67
2022-12-09T05:31:32.502Z,64.47
2022-12-09T05:34:02.364Z,72.18
2022-12-09T05:36:29.878Z,61.92
2022-12-09T05:39:04.394Z,59.00
2022-12-09T05:41:32.029Z,55.95
2022-12-09T05:43:59.498Z,59.08
2022-12-09T05:46:29.856Z,60.63
2022-12-09T05:48:57.700Z,58.00
2022-12-09T05:51:30.632Z,56.10
2022-12-09T05:54:04.583Z,64.25
2022-12-09T05:56:41.365Z,61.67
2022-12-09T05:59:12.104Z,58.67
2022-12-09T06:01:46.476Z,59.95
2022-12-09T06:04:16.275Z,59.75
2022-12-09T06:06:46.354Z,57.83
2022-12-09T06:09:14.183Z,61.88
2022-12-09T06:11:43.860Z,66.15
2022-12-09T06:14:11.589Z,64.72
2022-12-09T06:16:42.604Z,62.58
2022-12-09T06:19:13.004Z,60.05
2022-12-09T06:21:43.045Z,63.05
2022-12-09T06:24:10.561Z,59.60
2022-12-09T06:26:42.950Z,58.08
2022-12-09T06:29:10.550Z,57.55
2022-12-09T06:31:38.150Z,63.17
2022-12-09T06:34:08.371Z,60.53
2022-12-09T06:36:38.620Z,60.42
2022-12-09T06:39:10.506Z,60.78
2022-12-09T06:41:44.022Z,64.43
2022-12-09T06:46:47.311Z,61.10
2022-12-09T06:49:14.538Z,63.20
2022-12-09T06:51:42.249Z,64.05
2022-12-09T06:54:10.298Z,67.85
2022-12-09T06:56:37.955Z,64.35
2022-12-09T06:59:10.054Z,64.18
2022-12-09T07:01:38.971Z,64.88
2022-12-09T07:04:07.466Z,63.80
2022-12-09T07:06:40.252Z,72.65
2022-12-09T07:09:18.018Z,60.33
2022-12-09T07:11:51.585Z,62.33
2022-12-09T07:14:19.295Z,73.30
2022-12-09T07:16:52.266Z,63.65
2022-12-09T07:19:22.383Z,61.72
2022-12-09T07:24:20.596Z,56.17
2022-12-09T07:26:49.387Z,61.30
2022-12-09T07:29:19.599Z,62.80
2022-12-09T07:31:48.096Z,65.35
2022-12-09T07:34:18.570Z,61.97
2022-12-09T07:36:46.185Z,62.50
2022-12-09T07:39:18.621Z,61.05
2022-12-09T07:41:48.583Z,59.28
2022-12-09T07:44:16.158Z,61.17
2022-12-09T07:46:43.999Z,64.97
2022-12-09T07:49:16.719Z,59.65
2022-12-09T07:51:45.221Z,59.47
2022-12-09T07:54:14.561Z,62.75
2022-12-09T07:56:42.890Z,67.13
2022-12-09T07:59:12.330Z,56.63
2022-12-09T08:01:42.857Z,68.13
2022-12-09T08:04:10.588Z,65.25
2022-12-09T08:06:39.262Z,60.08
2022-12-09T08:09:12.693Z,66.82
2022-12-09T08:11:41.930Z,63.97
2022-12-09T08:14:13.323Z,66.28
2022-12-09T08:16:45.608Z,81.45
2022-12-09T08:19:17.689Z,65.75
2022-12-09T08:21:52.973Z,65.28
2022-12-09T08:24:22.125Z,78.35
2022-12-09T08:26:51.545Z,69.65
2022-12-09T08:29:21.535Z,63.58
2022-12-09T08:31:49.771Z,68.43
2022-12-09T08:34:17.115Z,51.60
2022-12-09T08:36:47.733Z,57.78
2022-12-09T08:39:17.533Z,57.63
2022-12-09T08:41:47.303Z,62.35
2022-12-09T08:44:20.265Z,59.10
2022-12-09T08:46:52.004Z,61.92
2022-12-09T08:49:22.351Z,65.53
2022-12-09T08:51:53.704Z,69.32
2022-12-09T08:54:26.272Z,69.05
2022-12-09T08:56:55.413Z,69.97
2022-12-09T08:59:23.802Z,78.00
2022-12-09T09:01:51.615Z,74.30
2022-12-09T09:04:21.755Z,73.75
2022-12-09T09:06:52.674Z,76.90
2022-12-09T09:09:23.617Z,80.75
2022-12-09T09:11:51.782Z,85.18
2022-12-09T09:14:22.019Z,67.85
2022-12-09T09:16:53.496Z,75.90
2022-12-09T09:19:26.179Z,77.60
2022-12-09T09:22:02.089Z,83.65
2022-12-09T09:24:32.601Z,76.78
2022-12-09T09:27:03.466Z,81.55
2022-12-09T09:29:31.292Z,87.75
2022-12-09T09:31:59.224Z,92.65
2022-12-09T09:34:29.167Z,89.47
2022-12-09T09:36:59.311Z,86.32
2022-12-09T09:39:26.952Z,89.80
2022-12-09T09:42:07.708Z,87.88
2022-12-09T09:44:46.196Z,75.05
2022-12-09T09:47:38.106Z,68.75
2022-12-09T09:50:18.748Z,60.65
2022-12-09T09:52:46.733Z,74.63
2022-12-09T09:55:21.164Z,76.20
2022-12-09T09:58:22.284Z,84.05
2022-12-09T10:00:56.834Z,78.97
2022-12-09T10:03:58.728Z,77.25
2022-12-09T10:06:56.130Z,68.88
2022-12-09T10:10:02.983Z,71.80
2022-12-09T10:13:08.134Z,68.30
2022-12-09T10:16:01.760Z,72.05
2022-12-09T10:19:09.553Z,82.40
2022-12-09T10:21:42.456Z,76.25
2022-12-09T10:24:40.537Z,81.15
2022-12-09T10:27:08.435Z,75.72
2022-12-09T10:29:41.511Z,83.15
2022-12-09T10:32:18.250Z,78.45
2022-12-09T10:34:49.568Z,87.45
2022-12-09T10:37:31.464Z,77.72
2022-12-09T10:40:11.003Z,89.77
2022-12-09T10:43:10.948Z,82.95
2022-12-09T10:46:19.510Z,83.25
2022-12-09T10:48:49.739Z,70.97
2022-12-09T10:51:24.991Z,82.47
2022-12-09T10:54:00.155Z,75.70
2022-12-09T10:56:38.611Z,81.03
2022-12-09T10:59:26.525Z,88.88
2022-12-09T11:02:01.674Z,75.45
2022-12-09T11:04:33.088Z,66.93
2022-12-09T11:07:13.119Z,70.32
2022-12-09T11:09:46.949Z,60.15
2022-12-09T11:12:40.959Z,65.85
2022-12-09T11:15:12.669Z,67.15
2022-12-09T11:18:18.557Z,70.00
2022-12-09T11:21:00.121Z,69.03
2022-12-09T11:23:28.898Z,67.72
2022-12-09T11:26:23.861Z,62.90
2022-12-09T11:29:16.407Z,73.35
2022-12-09T11:34:23.427Z,77.43
2022-12-09T11:36:59.028Z,79.07
2022-12-09T11:39:34.423Z,83.45
2022-12-09T11:42:24.869Z,84.18
2022-12-09T11:45:22.010Z,72.43
2022-12-09T11:48:25.781Z,80.93
2022-12-09T11:50:48.486Z,82.75
2022-12-09T11:53:30.635Z,76.75
2022-12-09T11:56:12.138Z,85.93
2022-12-09T11:58:42.156Z,78.85
2022-12-09T12:01:14.600Z,61.78
2022-12-09T12:03:50.901Z,77.75
2022-12-09T12:06:29.233Z,68.65
2022-12-09T12:09:12.075Z,87.22
2022-12-09T12:11:46.641Z,80.72
2022-12-09T12:14:18.931Z,87.35
2022-12-09T12:17:08.486Z,77.20
2022-12-09T12:19:43.611Z,84.38
2022-12-09T12:22:17.309Z,90.95
2022-12-09T12:25:17.453Z,79.38
2022-12-09T12:28:00.297Z,82.05
2022-12-09T12:31:01.874Z,83.70
2022-12-09T12:34:24.222Z,96.95
2022-12-09T12:36:52.941Z,87.13
2022-12-09T12:39:49.388Z,81.75
2022-12-09T12:43:05.923Z,78.22
2022-12-09T12:46:05.536Z,75.25
2022-12-09T12:49:08.549Z,74.43
2022-12-09T12:51:53.876Z,77.25
2022-12-09T12:54:37.307Z,77.53
2022-12-09T12:57:32.346Z,79.00
2022-12-09T13:00:15.578Z,77.82
2022-12-09T13:03:09.536Z,83.68
2022-12-09T13:05:42.117Z,80.72
2022-12-09T13:08:22.490Z,85.05
2022-12-09T13:11:02.334Z,84.30
2022-12-09T13:13:38.919Z,87.80
2022-12-09T13:16:32.840Z,86.97
2022-12-09T13:19:31.149Z,89.60
2022-12-09T13:22:04.536Z,102.55
2022-12-09T13:24:48.600Z,86.38
2022-12-09T13:27:37.489Z,91.35
2022-12-09T13:30:13.992Z,84.53
2022-12-09T13:33:09.859Z,88.68
2022-12-09T13:36:01.543Z,91.03
2022-12-09T13:38:46.296Z,87.40
2022-12-09T13:41:51.997Z,84.93
2022-12-09T13:44:19.727Z,88.10
2022-12-09T13:46:52.072Z,97.05
2022-12-09T13:49:28.841Z,91.82
2022-12-09T13:51:56.483Z,87.78
2022-12-09T13:54:32.724Z,93.90
2022-12-09T13:57:30.989Z,87.75
2022-12-09T14:00:05.941Z,108.03
2022-12-09T14:02:51.121Z,100.25
2022-12-09T14:05:26.298Z,101.78
2022-12-09T14:07:57.940Z,101.55
2022-12-09T14:10:44.117Z,101.90
2022-12-09T14:13:22.281Z,87.32
2022-12-09T14:16:11.543Z,92.32
2022-12-09T14:18:42.066Z,92.03
2022-12-09T14:21:20.772Z,107.85
2022-12-09T14:24:12.467Z,94.50
2022-12-09T14:27:10.181Z,86.35
2022-12-09T14:29:50.787Z,95.78
2022-12-09T14:32:52.956Z,88.00
2022-12-09T14:35:39.674Z,78.53
2022-12-09T14:38:30.972Z,91.18
2022-12-09T14:41:18.116Z,98.95
2022-12-09T14:43:59.921Z,95.80
2022-12-09T14:46:30.169Z,94.28
2022-12-09T14:49:11.549Z,92.60
2022-12-09T14:51:52.830Z,92.88
2022-12-09T14:54:28.164Z,103.25
2022-12-09T14:56:58.139Z,92.72
2022-12-09T14:59:27.674Z,95.65
2022-12-09T15:01:57.719Z,102.40
2022-12-09T15:04:28.800Z,99.65
2022-12-09T15:07:11.516Z,104.18
2022-12-09T15:10:18.264Z,101.68
2022-12-09T15:12:48.825Z,97.05
2022-12-09T15:15:33.913Z,92.18
2022-12-09T15:18:06.097Z,97.40
2022-12-09T15:23:31.273Z,106.10
2022-12-09T15:26:01.713Z,103.45
2022-12-09T15:28:33.258Z,95.45
2022-12-09T15:31:22.285Z,97.88
2022-12-09T15:34:11.675Z,93.53
2022-12-09T15:36:45.700Z,105.13
2022-12-09T15:39:34.497Z,89.55
2022-12-09T15:42:14.844Z,90.50
2022-12-09T15:44:57.427Z,92.75
2022-12-09T15:47:33.231Z,90.05
2022-12-09T15:50:15.126Z,93.03
2022-12-09T15:53:10.270Z,94.18
2022-12-09T15:55:46.052Z,88.43
2022-12-09T15:58:16.527Z,97.82
2022-12-09T16:00:49.027Z,107.00
2022-12-09T16:03:21.013Z,97.68
2022-12-09T16:05:57.479Z,102.33
2022-12-09T16:08:33.998Z,105.07
2022-12-09T16:11:03.497Z,103.05
2022-12-09T16:13:33.662Z,123.15
2022-12-09T16:16:26.283Z,121.32
2022-12-09T16:18:56.620Z,123.72
2022-12-09T16:21:36.027Z,111.22
2022-12-09T16:24:13.855Z,117.78
2022-12-09T16:26:50.021Z,117.13
2022-12-09T16:29:35.665Z,117.63
2022-12-09T16:32:22.469Z,112.63
2022-12-09T16:37:42.047Z,109.30
2022-12-09T16:40:21.642Z,100.65
2022-12-09T16:43:15.121Z,112.80
2022-12-09T16:45:53.315Z,102.78
2022-12-09T16:48:24.691Z,112.18
2022-12-09T16:51:10.423Z,106.10
2022-12-09T16:53:43.358Z,101.82
2022-12-09T16:56:27.556Z,108.28
2022-12-09T16:58:55.786Z,108.93
2022-12-09T17:01:33.862Z,110.82
2022-12-09T17:04:05.305Z,114.55
2022-12-09T17:06:35.392Z,124.03
2022-12-09T17:09:02.477Z,117.10
2022-12-09T17:11:34.567Z,119.90
2022-12-09T17:14:01.829Z,125.47
2022-12-09T17:16:29.332Z,120.82
2022-12-09T17:18:59.120Z,118.90
2022-12-09T17:21:26.592Z,125.25
2022-12-09T17:23:53.993Z,134.43
2022-12-09T17:26:24.752Z,124.95
2022-12-09T17:28:59.810Z,127.93
2022-12-09T17:31:29.972Z,129.32
2022-12-09T17:33:57.675Z,124.05
2022-12-09T17:36:29.876Z,134.18
2022-12-09T17:39:01.657Z,126.13
2022-12-09T17:41:31.552Z,124.63
2022-12-09T17:44:01.292Z,134.95
2022-12-09T17:46:37.137Z,127.45
2022-12-09T17:49:06.416Z,120.82
2022-12-09T17:51:36.590Z,117.93
2022-12-09T17:56:34.273Z,125.18
2022-12-09T17:59:03.342Z,120.47
2022-12-09T18:01:34.020Z,127.30
2022-12-09T18:04:10.418Z,121.15
2022-12-09T18:06:43.555Z,120.05
2022-12-09T18:09:14.101Z,119.65
2022-12-09T18:11:51.008Z,116.05
2022-12-09T18:14:21.128Z,124.93
2022-12-09T18:16:51.559Z,117.22
2022-12-09T18:19:20.747Z,124.78
2022-12-09T18:21:51.823Z,116.25
2022-12-09T18:24:18.980Z,121.85
2022-12-09T18:26:51.464Z,121.68
2022-12-09T18:29:24.226Z,119.80
2022-12-09T18:31:57.023Z,120.30
2022-12-09T18:34:26.911Z,122.28
2022-12-09T18:36:55.039Z,119.60
2022-12-09T18:39:22.476Z,123.93
2022-12-09T18:41:52.181Z,123.10
2022-12-09T18:44:19.947Z,130.68
2022-12-09T18:46:49.950Z,129.35
2022-12-09T18:49:23.946Z,126.07
2022-12-09T18:51:52.813Z,125.28
2022-12-09T18:54:28.180Z,124.43
2022-12-09T18:56:56.246Z,138.90
2022-12-09T18:59:25.576Z,128.13
2022-12-09T19:01:53.896Z,126.43
2022-12-09T19:04:30.384Z,120.55
2022-12-09T19:07:00.060Z,123.72
2022-12-09T19:09:32.220Z,125.97
2022-12-09T19:12:37.972Z,123.63
2022-12-09T19:14:50.860Z,124.85
2022-12-09T19:17:18.885Z,125.20
2022-12-09T19:19:47.321Z,124.30
2022-12-09T19:22:17.270Z,124.97
2022-12-09T19:24:49.494Z,124.10
2022-12-09T19:27:19.341Z,127.55
2022-12-09T19:29:46.567Z,128.43
2022-12-09T19:32:51.349Z,117.13
2022-12-09T19:37:40.981Z,107.28
2022-12-09T19:40:11.880Z,113.32
2022-12-09T19:42:39.802Z,112.70
2022-12-09T19:45:12.142Z,117.22
2022-12-09T19:47:41.596Z,113.63
2022-12-09T19:50:09.162Z,107.07
2022-12-09T19:52:36.860Z,113.45
2022-12-09T19:55:07.184Z,113.85
2022-12-09T19:57:35.046Z,108.43
2022-12-09T20:00:02.398Z,112.68
2022-12-09T20:02:32.643Z,111.70
2022-12-09T20:04:59.838Z,107.70
2022-12-09T20:07:27.201Z,102.32
2022-12-09T20:09:54.523Z,102.60
2022-12-09T20:12:21.972Z,102.88
2022-12-09T20:14:53.704Z,104.63
2022-12-09T20:17:21.312Z,109.20
2022-12-09T20:19:48.515Z,94.10
2022-12-09T20:22:20.609Z,104.53
2022-12-09T20:24:55.059Z,98.80
2022-12-09T20:27:25.260Z,102.47
2022-12-09T20:29:57.239Z,102.40
2022-12-09T20:32:32.256Z,105.53
2022-12-09T20:35:08.321Z,99.60
2022-12-09T20:37:40.810Z,107.10
2022-12-09T20:40:08.863Z,100.68
2022-12-09T20:42:36.801Z,102.85
2022-12-09T20:45:04.814Z,100.00
2022-12-09T20:47:32.692Z,106.80
2022-12-09T20:50:02.151Z,109.28
2022-12-09T20:52:29.581Z,108.80
2022-12-09T20:54:58.925Z,123.63
2022-12-09T20:57:26.381Z,117.70
2022-12-09T20:59:55.497Z,131.57
2022-12-09T21:02:27.660Z,142.15
2022-12-09T21:04:57.296Z,140.77
2022-12-09T21:07:27.305Z,154.55
2022-12-09T21:09:56.823Z,143.57
2022-12-09T21:12:24.355Z,139.32
2022-12-09T21:14:53.798Z,143.23
2022-12-09T21:17:25.674Z,136.57
2022-12-09T21:19:52.884Z,145.73
2022-12-09T21:22:20.376Z,134.07
2022-12-09T21:24:47.512Z,141.18
2022-12-09T21:27:15.025Z,138.05
2022-12-09T21:29:45.065Z,141.15
2022-12-09T21:32:16.295Z,140.90
2022-12-09T21:34:45.945Z,144.30
2022-12-09T21:37:18.358Z,131.35
2022-12-09T21:39:48.278Z,137.32
2022-12-09T21:42:21.078Z,143.10
2022-12-09T21:44:50.769Z,150.30
2022-12-09T21:47:18.404Z,136.90
2022-12-09T21:49:48.179Z,146.18
2022-12-09T21:52:15.841Z,152.90
2022-12-09T21:54:43.312Z,140.55
2022-12-09T21:57:10.876Z,133.75
2022-12-09T21:59:38.024Z,126.97
2022-12-09T22:02:08.260Z,131.30
2022-12-09T22:04:35.371Z,138.90
2022-12-09T22:07:02.779Z,139.82
2022-12-09T22:09:29.929Z,131.18
2022-12-09T22:11:59.419Z,127.35
2022-12-09T22:14:31.390Z,132.73
2022-12-09T22:17:01.176Z,139.68
2022-12-09T22:19:28.441Z,138.60
2022-12-09T22:21:58.163Z,155.52
2022-12-09T22:24:25.225Z,145.77
2022-12-09T22:26:54.906Z,140.57
2022-12-09T22:29:24.517Z,143.23
2022-12-09T22:31:51.873Z,140.25
2022-12-09T22:34:20.740Z,147.20
2022-12-09T22:36:49.365Z,144.30
2022-12-09T22:39:23.936Z,142.30
2022-12-09T22:41:54.761Z,139.80
2022-12-09T22:44:21.921Z,129.15
2022-12-09T22:46:51.895Z,123.68
2022-12-09T22:49:21.198Z,126.57
2022-12-09T22:51:49.171Z,127.22
2022-12-09T22:54:17.049Z,114.70
2022-12-09T22:56:47.339Z,114.38
2022-12-09T22:59:17.715Z,111.72
2022-12-09T23:01:49.827Z,109.40
2022-12-09T23:04:24.831Z,113.22
2022-12-09T23:06:52.445Z,118.68
2022-12-09T23:09:24.194Z,116.47
2022-12-09T23:11:52.884Z,112.35
2022-12-09T23:14:20.038Z,105.82
2022-12-09T23:16:50.045Z,113.45
2022-12-09T23:19:20.231Z,110.00
2022-12-09T23:21:53.306Z,114.80
2022-12-09T23:24:24.606Z,113.00
2022-12-09T23:26:56.077Z,111.22
2022-12-09T23:29:25.756Z,110.97
2022-12-09T23:31:55.418Z,109.22
2022-12-09T23:34:23.573Z,108.97
2022-12-09T23:36:53.342Z,96.82
2022-12-09T23:39:24.925Z,105.78
2022-12-09T23:41:52.731Z,104.97
2022-12-09T23:44:19.913Z,108.07
2022-12-09T23:46:49.884Z,105.88
2022-12-09T23:49:17.718Z,111.20
2022-12-09T23:51:45.223Z,101.20
2022-12-09T23:54:14.752Z,100.53
2022-12-09T23:56:52.605Z,106.45
2022-12-09T23:59:22.009Z,95.18
